Time;durP1;ratioP1;P1;durP2;ratioP2;P2;SDS_P1;SDS_P2;PMS_P1;PMS_P2;Temp;Humidity;BMP_temperature;BMP_pressure;BME280_temperature;BME280_humidity;BME280_pressure;Samples;Min_cycle;Max_cycle;Signal;HPM_P1;HPM_P2
2022/03/16 00:00:08;;;;;;;25.87;13.40;;;7.40;99.90;;;;;;4958648;28;20231;-82
2022/03/16 00:02:38;;;;;;;26.40;14.77;;;7.40;99.90;;;;;;4978355;28;20176;-81
2022/03/16 00:05:04;;;;;;;25.00;12.70;;;7.40;99.90;;;;;;4950411;28;20226;-82
2022/03/16 00:07:30;;;;;;;22.63;12.63;;;7.60;99.90;;;;;;4938072;29;20632;-83
2022/03/16 00:09:56;;;;;;;30.00;15.30;;;7.70;99.90;;;;;;4930516;29;20255;-82
2022/03/16 00:12:21;;;;;;;26.73;13.57;;;7.70;99.90;;;;;;4937125;28;20194;-82
2022/03/16 00:14:47;;;;;;;24.27;13.70;;;7.80;99.90;;;;;;4962879;28;20249;-82
2022/03/16 00:17:13;;;;;;;24.57;13.17;;;7.70;99.90;;;;;;4963048;28;20217;-82
2022/03/16 00:19:40;;;;;;;23.57;13.73;;;7.60;99.90;;;;;;4936067;28;20251;-84
2022/03/16 00:22:07;;;;;;;25.00;13.80;;;7.60;99.90;;;;;;4973988;28;20477;-82
2022/03/16 00:24:33;;;;;;;26.87;15.17;;;7.60;99.90;;;;;;4963698;28;20278;-82
2022/03/16 00:26:59;;;;;;;29.10;15.07;;;7.70;99.90;;;;;;4962612;28;20187;-82
2022/03/16 00:29:25;;;;;;;25.57;14.30;;;7.70;99.90;;;;;;4961650;28;20193;-82
2022/03/16 00:31:51;;;;;;;25.03;15.17;;;7.80;99.90;;;;;;4955866;28;20262;-82
2022/03/16 00:34:18;;;;;;;25.43;14.97;;;7.80;99.90;;;;;;4927021;29;20296;-82
2022/03/16 00:36:47;;;;;;;28.27;15.60;;;7.70;99.90;;;;;;4928681;29;20181;-81
2022/03/16 00:39:12;;;;;;;27.47;14.67;;;7.70;99.90;;;;;;4958551;28;20640;-81
2022/03/16 00:41:38;;;;;;;29.03;14.60;;;7.50;99.90;;;;;;4939593;28;20190;-82
2022/03/16 00:44:05;;;;;;;28.90;15.43;;;7.50;99.90;;;;;;4947367;28;20219;-82
2022/03/16 00:46:34;;;;;;;27.00;14.27;;;7.50;99.90;;;;;;4958674;28;20182;-82
2022/03/16 00:49:01;;;;;;;27.60;14.77;;;7.40;99.90;;;;;;4945753;28;20178;-82
2022/03/16 00:51:27;;;;;;;23.50;14.20;;;7.40;99.90;;;;;;4945395;28;20235;-81
2022/03/16 00:53:53;;;;;;;27.70;14.40;;;7.40;99.90;;;;;;4944611;28;20207;-82
2022/03/16 00:56:19;;;;;;;25.37;14.20;;;7.50;99.90;;;;;;4927915;28;20192;-82
2022/03/16 00:58:44;;;;;;;26.07;14.33;;;7.60;99.90;;;;;;4956509;28;20207;-82
2022/03/16 01:01:10;;;;;;;23.37;13.53;;;7.50;99.90;;;;;;4936994;28;20194;-81
2022/03/16 01:03:40;;;;;;;26.37;13.90;;;7.50;99.90;;;;;;4936725;28;20203;-81
2022/03/16 01:06:06;;;;;;;26.30;14.60;;;7.50;99.90;;;;;;4935014;28;20194;-82
2022/03/16 01:08:32;;;;;;;26.30;13.23;;;7.60;99.90;;;;;;4941648;28;20532;-82
2022/03/16 01:10:58;;;;;;;27.23;14.03;;;7.70;99.90;;;;;;4938250;28;20183;-82
2022/03/16 01:13:24;;;;;;;24.13;13.37;;;7.80;99.90;;;;;;4977373;28;20243;-81
2022/03/16 01:15:50;;;;;;;24.97;14.47;;;7.90;99.90;;;;;;4952217;28;20206;-81
2022/03/16 01:18:15;;;;;;;28.17;13.77;;;7.90;99.90;;;;;;4950826;28;20184;-83
2022/03/16 01:20:42;;;;;;;26.47;13.70;;;7.90;99.90;;;;;;4945393;28;20590;-82
2022/03/16 01:23:11;;;;;;;24.90;13.70;;;7.90;99.90;;;;;;4927474;29;20187;-82
2022/03/16 01:25:39;;;;;;;24.00;13.87;;;8.00;99.90;;;;;;4943569;28;20202;-82
2022/03/16 01:28:05;;;;;;;23.93;13.10;;;8.00;99.90;;;;;;4961588;28;20205;-82
2022/03/16 01:30:31;;;;;;;29.37;14.40;;;8.00;99.90;;;;;;4942910;28;20246;-82
2022/03/16 01:32:57;;;;;;;27.70;15.37;;;8.00;99.90;;;;;;4939453;29;20249;-81
2022/03/16 01:35:22;;;;;;;27.27;14.40;;;8.00;99.90;;;;;;4939914;28;20203;-80
2022/03/16 01:37:48;;;;;;;26.67;13.73;;;7.90;99.90;;;;;;4942714;28;20249;-81
2022/03/16 01:40:14;;;;;;;26.27;13.60;;;8.00;99.90;;;;;;4948062;28;20203;-82
2022/03/16 01:42:41;;;;;;;28.73;14.13;;;8.10;99.90;;;;;;4943757;28;20251;-82
2022/03/16 01:45:07;;;;;;;26.63;14.23;;;8.10;99.90;;;;;;4929010;29;20215;-83
2022/03/16 01:47:33;;;;;;;25.27;13.77;;;8.00;99.90;;;;;;4943839;28;20187;-82
2022/03/16 01:49:59;;;;;;;25.83;14.57;;;7.90;99.90;;;;;;4940678;28;20187;-81
2022/03/16 01:52:26;;;;;;;24.37;14.83;;;7.80;99.90;;;;;;4974059;28;20226;-81
2022/03/16 01:54:53;;;;;;;28.93;14.90;;;7.70;99.90;;;;;;4940613;28;20211;-82
2022/03/16 01:57:20;;;;;;;30.23;15.27;;;7.70;99.90;;;;;;4962482;28;20285;-82
2022/03/16 01:59:46;;;;;;;27.57;15.03;;;7.60;99.90;;;;;;4946600;28;20213;-82
2022/03/16 02:02:15;;;;;;;27.37;14.77;;;7.60;99.90;;;;;;4964974;28;20669;-82
2022/03/16 02:04:42;;;;;;;29.30;16.10;;;7.50;99.90;;;;;;4938067;28;20195;-82
2022/03/16 02:07:08;;;;;;;38.70;16.20;;;7.40;99.90;;;;;;4954514;28;20203;-81
2022/03/16 02:09:35;;;;;;;25.53;15.43;;;7.40;99.90;;;;;;4935995;28;20186;-83
2022/03/16 02:12:01;;;;;;;27.13;15.70;;;7.30;99.90;;;;;;4948797;28;20270;-82
2022/03/16 02:14:27;;;;;;;22.90;14.30;;;7.30;99.90;;;;;;4946154;28;20245;-82
2022/03/16 02:16:56;;;;;;;28.87;15.90;;;7.50;99.90;;;;;;4958211;28;20186;-82
2022/03/16 02:19:22;;;;;;;24.37;14.80;;;7.40;99.90;;;;;;4936308;29;20222;-82
2022/03/16 02:21:55;;;;;;;28.80;14.67;;;7.50;99.90;;;;;;4946756;29;20270;-82
2022/03/16 02:24:23;;;;;;;27.17;14.87;;;7.60;99.90;;;;;;4963768;28;20296;-81
2022/03/16 02:26:48;;;;;;;24.37;14.90;;;7.60;99.90;;;;;;4981974;28;20202;-82
2022/03/16 02:29:14;;;;;;;26.10;15.33;;;7.60;99.90;;;;;;4971700;28;20210;-85
2022/03/16 02:31:40;;;;;;;28.40;15.73;;;7.50;99.90;;;;;;4958098;28;20190;-82
2022/03/16 02:34:05;;;;;;;28.63;16.40;;;7.40;99.90;;;;;;4976454;28;20269;-82
2022/03/16 02:36:31;;;;;;;27.87;15.73;;;7.40;99.90;;;;;;4959578;28;20178;-83
2022/03/16 02:38:57;;;;;;;25.13;14.87;;;7.50;99.90;;;;;;4962252;28;20238;-82
2022/03/16 02:41:22;;;;;;;32.83;16.87;;;7.50;99.90;;;;;;4978719;28;20207;-82
2022/03/16 02:43:48;;;;;;;28.90;15.27;;;7.40;99.90;;;;;;4978006;28;20342;-82
2022/03/16 02:46:14;;;;;;;29.33;13.90;;;7.40;99.90;;;;;;4962422;28;20241;-84
2022/03/16 02:48:40;;;;;;;29.17;14.73;;;7.40;99.90;;;;;;4975655;28;20167;-84
2022/03/16 02:51:06;;;;;;;27.47;15.37;;;7.50;99.90;;;;;;4962382;28;20209;-82
2022/03/16 02:53:31;;;;;;;26.37;14.70;;;7.40;99.90;;;;;;4950481;29;20184;-82
2022/03/16 02:55:57;;;;;;;25.63;14.60;;;7.40;99.90;;;;;;4945660;28;20202;-82
2022/03/16 02:58:23;;;;;;;28.00;15.93;;;7.40;99.90;;;;;;4975177;28;20175;-83
2022/03/16 03:00:48;;;;;;;28.43;13.93;;;7.30;99.90;;;;;;4955014;28;20194;-82
2022/03/16 03:03:14;;;;;;;25.40;14.07;;;7.30;99.90;;;;;;4969374;28;20200;-82
2022/03/16 03:05:40;;;;;;;24.87;15.00;;;7.20;99.90;;;;;;4949337;28;20183;-82
2022/03/16 03:08:06;;;;;;;29.77;14.67;;;7.10;99.90;;;;;;4967945;28;20180;-82
2022/03/16 03:10:32;;;;;;;27.80;14.87;;;6.90;99.90;;;;;;4974039;28;20195;-82
2022/03/16 03:12:57;;;;;;;28.37;14.87;;;6.80;99.90;;;;;;4934153;29;20210;-82
2022/03/16 03:15:23;;;;;;;27.40;14.70;;;6.80;99.90;;;;;;4938423;28;20290;-82
2022/03/16 03:17:49;;;;;;;29.37;14.63;;;6.80;99.90;;;;;;4953181;28;20180;-82
2022/03/16 03:20:15;;;;;;;26.87;14.97;;;6.80;99.90;;;;;;4955467;28;20203;-83
2022/03/16 03:22:41;;;;;;;29.23;14.67;;;6.70;99.90;;;;;;4948063;28;20184;-82
2022/03/16 03:25:12;;;;;;;28.23;14.70;;;6.60;99.90;;;;;;4948600;28;20199;-80
2022/03/16 03:27:38;;;;;;;29.73;15.13;;;6.60;99.90;;;;;;4956684;28;20201;-82
2022/03/16 03:30:06;;;;;;;30.97;14.53;;;6.50;99.90;;;;;;4944242;29;20564;-82
2022/03/16 03:32:32;;;;;;;26.63;14.00;;;6.40;99.90;;;;;;4948366;29;20192;-82
2022/03/16 03:34:57;;;;;;;31.17;14.53;;;6.60;99.90;;;;;;4942180;28;20190;-81
2022/03/16 03:37:32;;;;;;;28.97;14.13;;;6.60;99.90;;;;;;4962414;28;20184;-82
2022/03/16 03:39:58;;;;;;;28.13;13.30;;;6.50;99.90;;;;;;4964172;28;20273;-82
2022/03/16 03:42:24;;;;;;;24.63;12.57;;;6.60;99.90;;;;;;4957455;28;20175;-82
2022/03/16 03:44:50;;;;;;;26.67;14.17;;;6.60;99.90;;;;;;4938719;28;20228;-84
2022/03/16 03:47:16;;;;;;;26.93;14.37;;;6.70;99.90;;;;;;4939195;28;20251;-84
2022/03/16 03:49:42;;;;;;;27.93;13.60;;;6.60;99.90;;;;;;4949173;28;20197;-83
2022/03/16 03:52:09;;;;;;;27.03;12.90;;;6.70;99.90;;;;;;4937477;29;20248;-83
2022/03/16 03:54:36;;;;;;;26.67;13.70;;;6.80;99.90;;;;;;4942616;28;20199;-83
2022/03/16 03:57:02;;;;;;;26.87;13.03;;;6.70;99.90;;;;;;4952352;28;20175;-82
2022/03/16 03:59:28;;;;;;;26.90;12.20;;;6.60;99.90;;;;;;4966859;28;20230;-81
2022/03/16 04:01:53;;;;;;;26.50;12.43;;;6.50;99.90;;;;;;4948254;28;20196;-82
2022/03/16 04:04:19;;;;;;;27.23;12.77;;;6.30;99.90;;;;;;4970116;28;20199;-83
2022/03/16 04:06:45;;;;;;;26.13;12.43;;;6.20;99.90;;;;;;4970612;28;20205;-83
2022/03/16 04:09:11;;;;;;;29.33;13.57;;;6.10;99.90;;;;;;4967107;28;20360;-82
2022/03/16 04:11:38;;;;;;;26.23;12.87;;;6.10;99.90;;;;;;4948355;28;20177;-83
2022/03/16 04:14:05;;;;;;;25.70;12.83;;;6.20;99.90;;;;;;4952283;28;20193;-82
2022/03/16 04:16:31;;;;;;;27.27;12.63;;;6.20;99.90;;;;;;4952452;28;20187;-83
2022/03/16 04:18:57;;;;;;;32.03;14.17;;;6.20;99.90;;;;;;4963829;29;20264;-84
2022/03/16 04:21:23;;;;;;;27.63;12.77;;;6.20;99.90;;;;;;4944545;28;20181;-84
2022/03/16 04:23:49;;;;;;;22.93;11.83;;;6.20;99.90;;;;;;4956538;28;20345;-83
2022/03/16 04:26:15;;;;;;;27.07;13.13;;;6.30;99.90;;;;;;4929194;29;20287;-82
2022/03/16 04:28:41;;;;;;;25.27;13.10;;;6.30;99.90;;;;;;4932520;29;20196;-82
2022/03/16 04:31:07;;;;;;;28.37;12.70;;;6.20;99.90;;;;;;4940281;28;20256;-83
2022/03/16 04:33:33;;;;;;;24.07;12.30;;;6.10;99.90;;;;;;4943651;28;20208;-83
2022/03/16 04:35:59;;;;;;;23.37;13.00;;;6.00;99.90;;;;;;4941842;28;20695;-83
2022/03/16 04:38:24;;;;;;;26.87;13.80;;;5.90;99.90;;;;;;4959621;28;20604;-83
2022/03/16 04:40:50;;;;;;;27.87;14.00;;;5.90;99.90;;;;;;4942929;28;20196;-84
2022/03/16 04:43:16;;;;;;;28.50;13.90;;;5.80;99.90;;;;;;4957528;28;20184;-84
2022/03/16 04:45:43;;;;;;;29.00;13.50;;;5.80;99.90;;;;;;4959842;28;20196;-83
2022/03/16 04:48:11;;;;;;;28.57;14.07;;;5.70;99.90;;;;;;4945528;28;20375;-83
2022/03/16 04:50:40;;;;;;;29.87;13.90;;;5.80;99.90;;;;;;4961079;28;20179;-83
2022/03/16 04:53:07;;;;;;;24.90;13.43;;;5.70;99.90;;;;;;4950925;28;20180;-84
2022/03/16 04:55:35;;;;;;;29.37;13.63;;;5.70;99.90;;;;;;4948710;28;20204;-84
2022/03/16 04:58:03;;;;;;;28.83;14.43;;;5.70;99.90;;;;;;4923939;28;20299;-85
2022/03/16 05:00:29;;;;;;;26.57;13.93;;;5.70;99.90;;;;;;4965083;28;20214;-82
2022/03/16 05:02:55;;;;;;;34.90;13.80;;;5.70;99.90;;;;;;4947307;29;20184;-83
2022/03/16 05:05:21;;;;;;;32.10;13.97;;;5.70;99.90;;;;;;4935496;29;20232;-83
2022/03/16 05:07:47;;;;;;;29.17;14.47;;;5.80;99.90;;;;;;4929314;28;20185;-83
2022/03/16 05:10:13;;;;;;;28.37;14.07;;;5.70;99.90;;;;;;4982054;28;20200;-84
2022/03/16 05:12:40;;;;;;;29.83;14.70;;;5.80;99.90;;;;;;4951653;28;20188;-83
2022/03/16 05:15:08;;;;;;;28.80;15.20;;;5.70;99.90;;;;;;4953098;28;20208;-83
2022/03/16 05:17:35;;;;;;;29.47;14.70;;;5.80;99.90;;;;;;4962042;28;20211;-84
2022/03/16 05:20:00;;;;;;;28.30;15.33;;;5.90;99.90;;;;;;4941175;28;20203;-84
2022/03/16 05:22:26;;;;;;;29.57;14.57;;;5.80;99.90;;;;;;4955169;28;20177;-83
2022/03/16 05:24:52;;;;;;;30.47;15.33;;;5.80;99.90;;;;;;4942380;28;20228;-84
2022/03/16 05:27:20;;;;;;;32.50;15.50;;;5.70;99.90;;;;;;4963632;29;20181;-84
2022/03/16 05:29:47;;;;;;;24.63;14.07;;;5.60;99.90;;;;;;4939221;28;20186;-83
2022/03/16 05:32:13;;;;;;;31.20;15.13;;;5.70;99.90;;;;;;4943585;29;20284;-82
2022/03/16 05:34:39;;;;;;;29.73;15.87;;;5.70;99.90;;;;;;4938626;29;20200;-82
2022/03/16 05:37:05;;;;;;;29.97;15.40;;;5.70;99.90;;;;;;4947263;28;20278;-82
2022/03/16 05:39:31;;;;;;;34.00;15.97;;;5.60;99.90;;;;;;4955158;28;20203;-83
2022/03/16 05:41:56;;;;;;;29.20;15.33;;;5.70;99.90;;;;;;4949538;28;20192;-83
2022/03/16 05:44:23;;;;;;;27.30;15.37;;;5.70;99.90;;;;;;4966793;28;20262;-83
2022/03/16 05:46:50;;;;;;;32.73;16.37;;;5.70;99.90;;;;;;4945593;28;20191;-83
2022/03/16 05:49:15;;;;;;;29.90;14.93;;;5.70;99.90;;;;;;4948751;28;20181;-82
2022/03/16 05:51:41;;;;;;;35.97;16.17;;;5.70;99.90;;;;;;4957207;28;20187;-82
2022/03/16 05:54:07;;;;;;;34.60;16.57;;;5.70;99.90;;;;;;4947600;29;20208;-83
2022/03/16 05:56:34;;;;;;;27.50;14.07;;;5.70;99.90;;;;;;4952992;28;20225;-82
2022/03/16 05:58:59;;;;;;;27.50;14.60;;;5.80;99.90;;;;;;4959605;28;20208;-82
2022/03/16 06:01:25;;;;;;;29.20;14.20;;;6.00;99.90;;;;;;4937704;29;20185;-84
2022/03/16 06:03:51;;;;;;;28.23;13.70;;;6.10;99.90;;;;;;4941727;28;20238;-83
2022/03/16 06:06:20;;;;;;;27.40;14.27;;;6.20;99.90;;;;;;4938991;28;20172;-83
2022/03/16 06:08:46;;;;;;;29.93;15.77;;;6.30;99.90;;;;;;4937508;29;20192;-84
2022/03/16 06:11:11;;;;;;;34.30;15.87;;;6.30;99.90;;;;;;4933423;29;20268;-83
2022/03/16 06:13:37;;;;;;;24.93;15.17;;;6.20;99.90;;;;;;4948547;28;20223;-84
2022/03/16 06:16:03;;;;;;;31.10;15.70;;;6.20;99.90;;;;;;4959866;28;20247;-83
2022/03/16 06:18:29;;;;;;;27.20;14.80;;;6.00;99.90;;;;;;4957334;28;20301;-84
2022/03/16 06:20:55;;;;;;;26.93;15.00;;;6.00;99.90;;;;;;4950606;28;20221;-83
2022/03/16 06:23:20;;;;;;;28.73;14.07;;;6.10;99.90;;;;;;4950617;28;20516;-83
2022/03/16 06:25:46;;;;;;;33.27;16.80;;;6.30;99.90;;;;;;4950064;28;20184;-83
2022/03/16 06:28:12;;;;;;;31.07;15.87;;;6.30;99.90;;;;;;4950075;28;20192;-83
2022/03/16 06:30:45;;;;;;;31.70;17.07;;;6.40;99.90;;;;;;4950266;28;20209;-83
2022/03/16 06:33:10;;;;;;;31.97;15.60;;;6.40;99.90;;;;;;4951129;28;20168;-84
2022/03/16 06:35:36;;;;;;;32.87;16.13;;;6.50;99.90;;;;;;4949160;28;20243;-84
2022/03/16 06:38:08;;;;;;;36.07;17.33;;;6.50;99.90;;;;;;4950174;28;20180;-84
2022/03/16 06:40:34;;;;;;;37.17;16.67;;;6.50;99.90;;;;;;4950381;28;20235;-84
2022/03/16 06:43:00;;;;;;;33.40;16.30;;;6.60;99.90;;;;;;4951837;28;20224;-82
2022/03/16 06:45:30;;;;;;;30.97;16.83;;;6.60;99.90;;;;;;4948964;28;20212;-83
2022/03/16 06:47:58;;;;;;;29.27;16.33;;;6.60;99.90;;;;;;4946130;29;20182;-83
2022/03/16 06:50:24;;;;;;;30.07;15.87;;;6.60;99.90;;;;;;4946132;29;20525;-84
2022/03/16 06:52:51;;;;;;;33.63;17.80;;;6.70;99.90;;;;;;4946466;29;20213;-83
2022/03/16 06:55:16;;;;;;;30.27;16.60;;;6.80;99.90;;;;;;4949471;28;20251;-84
2022/03/16 06:57:42;;;;;;;29.43;14.90;;;6.80;99.90;;;;;;4949162;28;20271;-82
2022/03/16 07:00:09;;;;;;;34.77;16.07;;;7.00;99.90;;;;;;4965503;28;20216;-83
2022/03/16 07:02:51;;;;;;;30.07;16.33;;;7.00;99.90;;;;;;4947867;28;20201;-83
2022/03/16 07:05:17;;;;;;;32.00;16.30;;;7.10;99.90;;;;;;4964360;28;20194;-85
2022/03/16 07:07:42;;;;;;;29.93;15.57;;;7.20;99.90;;;;;;4948746;28;20192;-84
2022/03/16 07:10:18;;;;;;;29.50;15.40;;;7.20;99.90;;;;;;4947140;28;20192;-83
2022/03/16 07:12:46;;;;;;;27.40;15.93;;;7.30;99.90;;;;;;4971969;28;20183;-82
2022/03/16 07:15:12;;;;;;;26.67;14.20;;;7.30;99.90;;;;;;4959120;28;20714;-84
2022/03/16 07:17:38;;;;;;;26.33;15.43;;;7.40;99.90;;;;;;4951725;28;20226;-80
2022/03/16 07:20:10;;;;;;;29.60;14.27;;;7.50;99.90;;;;;;4966546;28;20207;-80
2022/03/16 07:22:37;;;;;;;28.73;14.93;;;7.50;99.90;;;;;;4956999;28;20194;-81
2022/03/16 07:25:04;;;;;;;29.47;15.33;;;7.50;99.90;;;;;;4953339;28;20198;-78
2022/03/16 07:27:30;;;;;;;27.00;14.57;;;7.60;99.90;;;;;;4959605;28;20182;-80
2022/03/16 07:29:56;;;;;;;28.47;14.63;;;7.70;99.90;;;;;;4959317;28;20201;-82
2022/03/16 07:32:22;;;;;;;31.57;15.33;;;7.80;99.90;;;;;;4960758;28;20193;-83
2022/03/16 07:34:50;;;;;;;30.43;14.93;;;7.80;99.90;;;;;;4954078;28;20266;-82
2022/03/16 07:37:17;;;;;;;28.53;14.90;;;7.70;99.90;;;;;;4958439;28;20215;-82
2022/03/16 07:39:51;;;;;;;25.60;14.97;;;7.70;99.90;;;;;;4960870;28;20211;-83
2022/03/16 07:42:17;;;;;;;27.03;14.27;;;7.80;99.90;;;;;;4972914;28;20170;-82
2022/03/16 07:44:43;;;;;;;25.20;14.40;;;7.90;99.90;;;;;;4960733;28;20215;-82
2022/03/16 07:47:09;;;;;;;21.97;13.73;;;8.00;99.90;;;;;;4961479;28;20175;-81
2022/03/16 07:49:35;;;;;;;32.43;15.73;;;8.00;99.90;;;;;;4958811;28;20182;-82
2022/03/16 07:52:01;;;;;;;24.67;13.87;;;8.10;99.90;;;;;;4957629;28;20197;-81
2022/03/16 07:54:27;;;;;;;27.97;14.57;;;8.10;99.90;;;;;;4957033;28;20263;-82
2022/03/16 07:56:53;;;;;;;25.47;14.00;;;8.20;99.90;;;;;;4992342;28;20179;-81
2022/03/16 07:59:26;;;;;;;26.47;13.57;;;8.30;99.90;;;;;;4960410;28;20203;-80
2022/03/16 08:01:51;;;;;;;26.77;13.80;;;8.30;99.90;;;;;;4962896;28;20241;-81
2022/03/16 08:04:17;;;;;;;21.83;11.97;;;8.20;99.90;;;;;;4957983;28;20198;-81
2022/03/16 08:06:43;;;;;;;22.93;11.93;;;8.10;99.90;;;;;;4980478;28;20181;-82
2022/03/16 08:09:10;;;;;;;25.60;13.10;;;8.10;99.90;;;;;;4958203;28;20209;-81
2022/03/16 08:11:36;;;;;;;23.20;13.47;;;8.10;99.90;;;;;;4960759;28;20168;-81
2022/03/16 08:14:01;;;;;;;25.97;13.20;;;8.10;99.90;;;;;;4955853;28;20195;-80
2022/03/16 08:16:27;;;;;;;28.27;13.90;;;8.10;99.90;;;;;;4959659;28;20183;-81
2022/03/16 08:18:53;;;;;;;25.67;14.10;;;8.10;99.90;;;;;;4953437;28;20171;-82
2022/03/16 08:21:18;;;;;;;27.73;12.87;;;8.10;99.90;;;;;;4959988;28;20187;-81
2022/03/16 08:23:44;;;;;;;19.57;11.77;;;8.20;99.90;;;;;;4960051;28;20190;-82
2022/03/16 08:26:10;;;;;;;21.53;12.30;;;8.30;99.90;;;;;;4956656;28;20180;-79
2022/03/16 08:28:36;;;;;;;23.77;12.57;;;8.30;99.90;;;;;;4955380;28;20175;-80
2022/03/16 08:31:01;;;;;;;23.10;12.47;;;8.40;99.90;;;;;;4956301;28;20176;-79
2022/03/16 08:33:27;;;;;;;21.37;12.33;;;8.30;99.90;;;;;;4958787;28;20187;-80
2022/03/16 08:35:53;;;;;;;20.47;11.60;;;8.20;99.90;;;;;;4958452;28;20198;-80
2022/03/16 08:38:37;;;;;;;25.47;12.57;;;8.30;99.90;;;;;;4952529;28;20210;-79
2022/03/16 08:41:05;;;;;;;20.30;11.80;;;8.30;99.90;;;;;;4988208;28;20179;-80
2022/03/16 08:43:31;;;;;;;19.30;12.23;;;8.40;99.90;;;;;;4956302;28;20264;-80
2022/03/16 08:45:58;;;;;;;24.47;13.77;;;8.40;99.90;;;;;;4957951;28;20183;-82
2022/03/16 08:48:24;;;;;;;20.60;12.30;;;8.50;99.90;;;;;;4959677;28;20182;-82
2022/03/16 08:50:53;;;;;;;20.97;12.20;;;8.50;99.90;;;;;;4964024;28;20279;-82
2022/03/16 08:53:19;;;;;;;22.93;12.70;;;8.50;99.90;;;;;;4959818;28;20230;-79
2022/03/16 08:55:44;;;;;;;26.77;13.83;;;8.70;99.90;;;;;;4943152;28;20183;-79
2022/03/16 08:58:19;;;;;;;23.67;12.70;;;8.70;99.90;;;;;;4947179;28;20199;-78
2022/03/16 09:00:45;;;;;;;21.40;12.27;;;8.70;99.90;;;;;;4948546;28;20212;-79
2022/03/16 09:03:10;;;;;;;21.70;12.47;;;8.70;99.90;;;;;;4948607;28;20180;-77
2022/03/16 09:05:36;;;;;;;22.50;12.80;;;8.60;99.90;;;;;;4972690;28;20199;-78
2022/03/16 09:08:03;;;;;;;25.60;12.57;;;8.70;99.90;;;;;;4939814;28;20172;-78
2022/03/16 09:10:29;;;;;;;25.33;13.33;;;8.80;99.90;;;;;;4965545;28;20183;-77
2022/03/16 09:12:55;;;;;;;24.97;13.10;;;9.00;99.90;;;;;;4951654;28;20183;-77
2022/03/16 09:15:20;;;;;;;23.07;12.93;;;9.10;99.90;;;;;;4951834;28;20207;-76
2022/03/16 09:17:46;;;;;;;23.07;13.07;;;9.20;99.90;;;;;;4967215;28;20273;-76
2022/03/16 09:20:12;;;;;;;23.60;13.43;;;9.20;99.90;;;;;;4956792;28;20195;-76
2022/03/16 09:22:37;;;;;;;25.83;14.03;;;9.40;99.90;;;;;;4951256;28;20579;-77
2022/03/16 09:25:07;;;;;;;24.47;12.83;;;9.40;99.90;;;;;;4942406;28;20222;-78
2022/03/16 09:27:35;;;;;;;21.70;12.90;;;9.50;99.90;;;;;;4990721;28;20175;-78
2022/03/16 09:30:00;;;;;;;24.10;13.23;;;9.50;99.90;;;;;;4959360;28;20199;-79
2022/03/16 09:32:27;;;;;;;20.67;12.33;;;9.70;99.90;;;;;;4972260;28;20539;-79
2022/03/16 09:34:53;;;;;;;23.70;12.23;;;9.90;99.90;;;;;;4958333;28;20217;-80
2022/03/16 09:37:19;;;;;;;24.13;12.60;;;10.20;99.90;;;;;;4958784;28;20210;-79
2022/03/16 09:39:45;;;;;;;24.70;12.43;;;10.40;99.90;;;;;;4952274;28;20295;-79
2022/03/16 09:42:19;;;;;;;23.10;11.90;;;10.50;99.90;;;;;;4956772;28;20183;-82
2022/03/16 09:44:46;;;;;;;24.40;12.83;;;10.50;99.90;;;;;;4952067;28;20568;-78
2022/03/16 09:47:12;;;;;;;27.07;13.37;;;10.50;99.90;;;;;;4948470;28;20208;-78
2022/03/16 09:49:38;;;;;;;24.30;12.67;;;10.30;99.90;;;;;;4971625;28;20192;-78
2022/03/16 09:52:07;;;;;;;19.43;11.77;;;10.20;99.90;;;;;;4951497;28;20191;-79
2022/03/16 09:54:33;;;;;;;20.60;12.90;;;10.20;99.90;;;;;;4954852;28;20202;-79
2022/03/16 09:56:59;;;;;;;23.50;12.70;;;10.30;99.90;;;;;;4955593;28;20184;-79
2022/03/16 09:59:24;;;;;;;24.83;12.93;;;10.10;99.90;;;;;;4967521;28;20202;-76
2022/03/16 10:02:07;;;;;;;24.90;13.17;;;10.00;99.90;;;;;;4955873;28;20240;-79
2022/03/16 10:04:35;;;;;;;22.43;12.77;;;10.10;99.90;;;;;;4950409;28;20583;-78
2022/03/16 10:07:01;;;;;;;21.20;11.87;;;10.20;99.90;;;;;;4957522;28;20195;-79
2022/03/16 10:15:10;;;;;;;20.30;10.97;;;10.70;99.90;;;;;;4988062;28;20211;-78
2022/03/16 10:17:46;;;;;;;21.70;11.17;;;11.00;99.90;;;;;;4959464;28;20187;-78
2022/03/16 10:20:18;;;;;;;21.40;11.37;;;11.20;99.90;;;;;;4962531;28;20278;-78
2022/03/16 10:22:53;;;;;;;19.67;10.37;;;11.30;99.90;;;;;;4971313;28;20175;-77
2022/03/16 10:25:28;;;;;;;18.87;10.70;;;11.20;99.90;;;;;;4946216;28;20601;-77
2022/03/16 10:28:19;;;;;;;22.23;11.50;;;11.20;99.90;;;;;;4966248;28;20171;-77
2022/03/16 10:31:05;;;;;;;21.30;11.00;;;11.10;99.90;;;;;;4971887;28;20178;-78
2022/03/16 10:33:51;;;;;;;16.83;9.50;;;11.10;99.90;;;;;;4951813;28;20188;-78
2022/03/16 10:36:22;;;;;;;18.93;10.20;;;11.20;99.90;;;;;;4968754;28;20188;-79
2022/03/16 10:39:01;;;;;;;19.17;9.93;;;11.40;99.90;;;;;;4973288;28;20178;-78
2022/03/16 10:47:20;;;;;;;20.03;10.80;;;12.00;99.90;;;;;;4973357;28;20183;-76
2022/03/16 10:49:48;;;;;;;22.33;10.20;;;11.90;99.90;;;;;;4953555;28;20187;-76
2022/03/16 10:52:18;;;;;;;22.57;11.73;;;11.90;99.90;;;;;;4948298;28;20664;-75
2022/03/16 10:54:45;;;;;;;21.73;12.30;;;12.00;99.90;;;;;;4973798;28;20195;-76
2022/03/16 10:57:13;;;;;;;21.00;12.10;;;12.00;99.90;;;;;;4949568;28;20547;-76
2022/03/16 10:59:41;;;;;;;23.40;11.07;;;12.10;99.90;;;;;;4952493;28;20303;-77
2022/03/16 11:02:13;;;;;;;21.37;9.97;;;12.20;99.90;;;;;;4952119;28;20176;-81
2022/03/16 11:04:44;;;;;;;15.67;8.57;;;12.10;99.90;;;;;;4951635;28;20191;-81
2022/03/16 11:07:10;;;;;;;17.03;8.13;;;12.00;99.90;;;;;;4959787;28;20274;-82
2022/03/16 11:09:37;;;;;;;11.77;7.47;;;12.00;99.90;;;;;;4956525;28;20183;-81
2022/03/16 11:14:51;;;;;;;19.40;8.43;;;11.80;99.60;;;;;;4981881;28;20254;-79
2022/03/16 11:17:18;;;;;;;16.77;7.53;;;11.70;99.90;;;;;;4962719;28;20187;-81
2022/03/16 11:19:46;;;;;;;22.97;8.00;;;11.70;99.90;;;;;;4970075;28;20211;-78
2022/03/16 11:22:21;;;;;;;13.83;7.13;;;11.80;99.70;;;;;;4962538;28;20186;-79
2022/03/16 11:24:54;;;;;;;10.60;5.70;;;11.70;99.50;;;;;;4976275;28;20230;-79
2022/03/16 11:27:25;;;;;;;14.73;6.53;;;11.70;99.20;;;;;;4953658;28;20183;-80
2022/03/16 11:30:09;;;;;;;14.63;6.63;;;11.70;99.90;;;;;;4979687;28;20259;-79
2022/03/16 11:32:38;;;;;;;11.57;6.00;;;11.90;99.90;;;;;;4986248;28;20184;-79
2022/03/16 11:35:09;;;;;;;14.53;6.93;;;12.10;99.20;;;;;;4953794;28;20271;-79
2022/03/16 11:37:39;;;;;;;12.27;6.97;;;12.00;99.40;;;;;;4957370;28;20189;-79
2022/03/16 11:40:13;;;;;;;15.20;7.00;;;12.00;99.50;;;;;;4959985;28;20206;-79
2022/03/16 11:43:04;;;;;;;14.50;6.97;;;12.20;98.70;;;;;;4970692;28;20167;-79
2022/03/16 11:45:54;;;;;;;13.63;7.37;;;12.10;98.60;;;;;;4956033;28;20207;-79
2022/03/16 11:48:34;;;;;;;15.63;6.93;;;12.10;98.70;;;;;;4971933;28;20175;-78
2022/03/16 11:51:09;;;;;;;10.53;6.77;;;12.00;99.00;;;;;;4977461;28;20202;-80
2022/03/16 11:53:47;;;;;;;15.63;7.40;;;11.90;99.60;;;;;;4947151;28;20726;-79
2022/03/16 11:56:24;;;;;;;16.27;8.33;;;12.00;99.80;;;;;;4982195;28;20172;-79
2022/03/16 11:59:23;;;;;;;15.50;7.80;;;12.10;99.50;;;;;;4979140;28;20179;-79
2022/03/16 12:01:52;;;;;;;14.07;7.53;;;12.10;99.80;;;;;;4988117;28;20188;-79
2022/03/16 12:15:31;;;;;;;21.77;8.77;;;12.50;99.50;;;;;;4994134;28;20210;-81
2022/03/16 12:21:40;;;;;;;14.17;7.60;;;12.70;99.90;;;;;;4997480;28;20190;-79
2022/03/16 12:30:52;;;;;;;16.73;8.80;;;13.30;97.70;;;;;;4981218;28;20192;-80
2022/03/16 12:33:32;;;;;;;15.47;8.47;;;13.10;98.00;;;;;;4972470;28;20177;-80
2022/03/16 12:36:07;;;;;;;17.40;8.77;;;12.90;98.00;;;;;;4950551;28;20171;-81
2022/03/16 12:38:47;;;;;;;13.23;8.13;;;12.80;98.20;;;;;;4978382;28;20203;-79
2022/03/16 12:44:02;;;;;;;14.40;8.50;;;12.20;99.20;;;;;;4994583;28;20211;-79
2022/03/16 12:46:52;;;;;;;15.93;8.50;;;12.10;99.50;;;;;;4975993;28;20497;-79
2022/03/16 12:49:21;;;;;;;16.70;8.40;;;12.10;99.40;;;;;;4956817;28;20256;-80
2022/03/16 12:51:55;;;;;;;15.37;8.33;;;12.20;99.30;;;;;;4962469;28;20191;-80
2022/03/16 12:54:26;;;;;;;16.23;8.07;;;12.20;99.30;;;;;;4987997;28;20604;-80
2022/03/16 12:56:55;;;;;;;18.37;8.83;;;12.20;99.50;;;;;;4958583;28;20180;-79
2022/03/16 12:59:26;;;;;;;15.60;8.57;;;12.10;99.90;;;;;;4986730;28;20297;-79
2022/03/16 13:01:55;;;;;;;14.07;8.53;;;12.10;99.80;;;;;;4988763;28;20188;-78
2022/03/16 13:04:26;;;;;;;15.93;8.27;;;12.10;99.50;;;;;;4961578;28;20208;-81
2022/03/16 13:06:57;;;;;;;14.03;7.50;;;12.10;99.50;;;;;;4960946;28;20176;-80
2022/03/16 13:09:31;;;;;;;11.40;6.37;;;12.30;99.80;;;;;;4955855;28;20186;-80
2022/03/16 13:12:09;;;;;;;12.20;6.80;;;12.40;98.80;;;;;;4960681;28;20183;-80
2022/03/16 13:14:37;;;;;;;13.43;6.87;;;12.60;97.80;;;;;;4959536;28;20202;-83
2022/03/16 13:17:06;;;;;;;11.33;6.90;;;12.80;97.20;;;;;;4956833;28;20176;-80